Time;durP1;ratioP1;P1;durP2;ratioP2;P2;SDS_P1;SDS_P2;PMS_P1;PMS_P2;Temp;Humidity;BMP_temperature;BMP_pressure;BME280_temperature;BME280_humidity;BME280_pressure;Samples;Min_cycle;Max_cycle;Signal;HPM_P1;HPM_P2
2024/01/18 00:00:17;;;;;;;1.20;1.10;;;;;;;12.69;66.70;94693.88;5052009;28;20190;-68
2024/01/18 00:02:43;;;;;;;1.40;1.30;;;;;;;12.70;66.95;94692.84;5060623;28;20186;-70
2024/01/18 00:05:09;;;;;;;1.33;1.00;;;;;;;12.69;66.82;94696.50;5050837;28;20639;-69
2024/01/18 00:07:35;;;;;;;1.37;1.20;;;;;;;12.67;66.83;94700.34;5067563;28;20203;-68
2024/01/18 00:10:01;;;;;;;1.10;1.00;;;;;;;12.67;66.89;94697.72;5056122;28;20435;-68
2024/01/18 00:12:26;;;;;;;1.00;0.80;;;;;;;12.69;66.78;94699.13;5053571;28;20199;-70
2024/01/18 00:14:52;;;;;;;2.17;1.03;;;;;;;12.58;66.65;94703.31;5054535;28;20179;-68
2024/01/18 00:17:17;;;;;;;1.70;1.30;;;;;;;12.63;66.64;94705.25;5046132;28;20183;-69
2024/01/18 00:19:42;;;;;;;1.30;1.00;;;;;;;12.60;66.27;94705.75;5039952;28;20179;-70
2024/01/18 00:22:08;;;;;;;1.50;1.00;;;;;;;12.59;66.44;94715.44;5048766;28;20222;-72
2024/01/18 00:24:33;;;;;;;1.10;1.00;;;;;;;12.56;66.50;94718.50;5049404;28;20175;-69
2024/01/18 00:27:00;;;;;;;3.00;1.30;;;;;;;12.56;66.65;94730.84;5052760;28;20207;-69
2024/01/18 00:29:26;;;;;;;3.43;1.03;;;;;;;12.53;66.23;94723.41;5064977;28;20270;-70
2024/01/18 00:31:51;;;;;;;1.27;1.17;;;;;;;12.52;66.33;94730.50;5052825;28;20517;-69
2024/01/18 00:34:17;;;;;;;1.30;1.00;;;;;;;12.50;66.49;94729.09;5058183;28;20238;-69
2024/01/18 00:36:42;;;;;;;2.17;1.20;;;;;;;12.53;66.83;94728.66;5034974;28;20191;-70
2024/01/18 00:39:15;;;;;;;1.30;1.13;;;;;;;12.55;66.26;94716.09;5055979;28;20280;-69
2024/01/18 00:41:40;;;;;;;1.30;1.00;;;;;;;12.49;66.16;94730.13;5056771;28;20806;-67
2024/01/18 00:44:06;;;;;;;1.13;1.03;;;;;;;12.50;66.03;94727.28;5042229;28;20439;-68
2024/01/18 00:46:31;;;;;;;2.07;1.30;;;;;;;12.48;65.87;94718.84;5047438;28;20703;-68
2024/01/18 00:48:57;;;;;;;1.13;0.97;;;;;;;12.44;66.19;94715.88;5045489;28;20185;-68
2024/01/18 00:51:22;;;;;;;1.13;0.97;;;;;;;12.44;65.97;94712.41;5058554;28;20198;-70
2024/01/18 00:53:48;;;;;;;2.40;1.17;;;;;;;12.46;65.98;94717.47;5048418;28;20221;-69
2024/01/18 00:56:13;;;;;;;1.33;1.10;;;;;;;12.43;65.77;94722.13;5061194;28;20258;-69
2024/01/18 00:58:40;;;;;;;1.40;1.27;;;;;;;12.44;65.67;94712.41;5055519;28;20663;-70
2024/01/18 01:01:06;;;;;;;1.03;0.90;;;;;;;12.37;65.97;94717.78;5054109;28;20253;-71
2024/01/18 01:03:31;;;;;;;1.10;1.00;;;;;;;12.34;65.83;94723.50;5039775;28;20974;-70
2024/01/18 01:05:57;;;;;;;1.40;1.00;;;;;;;12.33;65.79;94724.50;5041017;28;20295;-70
2024/01/18 01:08:22;;;;;;;1.70;0.97;;;;;;;12.32;65.66;94728.16;5041288;28;20180;-69
2024/01/18 01:10:48;;;;;;;1.00;0.90;;;;;;;12.29;65.64;94728.59;5056755;28;20278;-70
2024/01/18 01:13:13;;;;;;;1.60;1.00;;;;;;;12.31;65.72;94721.31;5069403;28;20178;-70
2024/01/18 01:15:38;;;;;;;1.60;0.90;;;;;;;12.27;65.95;94720.97;5052077;28;20664;-68
2024/01/18 01:18:04;;;;;;;2.20;1.07;;;;;;;12.25;66.12;94727.44;5052041;28;20199;-69
2024/01/18 01:20:30;;;;;;;1.93;0.83;;;;;;;12.24;66.16;94716.16;5047291;28;20294;-71
2024/01/18 01:22:56;;;;;;;1.37;1.10;;;;;;;12.31;66.01;94723.13;5048517;28;20213;-70
2024/01/18 01:25:22;;;;;;;1.57;0.90;;;;;;;12.36;66.02;94720.63;5054952;28;20265;-69
2024/01/18 01:27:48;;;;;;;1.73;1.13;;;;;;;12.37;65.79;94725.66;5048465;28;20529;-70
2024/01/18 01:30:15;;;;;;;1.10;1.00;;;;;;;12.39;65.92;94730.69;5053782;28;20290;-68
2024/01/18 01:32:40;;;;;;;1.20;1.00;;;;;;;12.41;66.01;94729.44;5057478;28;21053;-70
2024/01/18 01:35:06;;;;;;;7.43;1.30;;;;;;;12.48;65.88;94728.53;5055829;28;20270;-69
2024/01/18 01:37:31;;;;;;;1.30;1.20;;;;;;;12.46;66.07;94735.84;5057411;28;20179;-69
2024/01/18 01:39:57;;;;;;;2.70;1.20;;;;;;;12.49;65.85;94727.50;5053280;28;20213;-69
2024/01/18 01:42:22;;;;;;;1.43;1.00;;;;;;;12.48;66.13;94726.72;5047424;28;20671;-69
2024/01/18 01:44:49;;;;;;;1.50;1.00;;;;;;;12.46;66.39;94725.34;5050332;28;20312;-69
2024/01/18 01:47:15;;;;;;;2.27;1.10;;;;;;;12.43;66.08;94724.75;5050672;28;20199;-68
2024/01/18 01:49:40;;;;;;;2.00;1.00;;;;;;;12.45;66.20;94716.66;5050406;28;20533;-71
2024/01/18 01:52:06;;;;;;;1.83;1.20;;;;;;;12.47;65.97;94719.06;5050254;28;20199;-67
2024/01/18 01:54:32;;;;;;;1.20;1.00;;;;;;;12.40;66.24;94721.78;5056889;28;20182;-69
2024/01/18 01:56:58;;;;;;;1.73;1.03;;;;;;;12.37;66.32;94723.03;5046860;28;20241;-69
2024/01/18 01:59:24;;;;;;;1.40;0.90;;;;;;;12.35;66.36;94722.44;5028547;28;20430;-68
2024/01/18 02:01:50;;;;;;;1.40;1.00;;;;;;;12.35;66.63;94719.81;5049046;28;20461;-66
2024/01/18 02:04:16;;;;;;;1.00;0.70;;;;;;;12.35;66.99;94719.81;5029569;28;20509;-68
2024/01/18 02:06:42;;;;;;;1.43;0.80;;;;;;;12.40;66.42;94727.84;5053792;28;20675;-69
2024/01/18 02:09:08;;;;;;;1.50;1.00;;;;;;;12.40;66.84;94727.84;5047900;28;20425;-69
2024/01/18 02:11:34;;;;;;;1.20;1.00;;;;;;;12.41;66.46;94728.66;5061481;28;20213;-69
2024/01/18 02:14:00;;;;;;;1.00;0.80;;;;;;;12.48;66.25;94728.53;5047992;28;20418;-69
2024/01/18 02:16:25;;;;;;;1.30;0.80;;;;;;;12.52;66.50;94724.44;5043731;28;20935;-68
2024/01/18 02:18:51;;;;;;;1.00;0.73;;;;;;;12.56;66.63;94736.09;5040219;28;20184;-68
2024/01/18 02:21:17;;;;;;;1.30;0.93;;;;;;;12.55;66.25;94729.25;5056925;28;20603;-68
2024/01/18 02:23:46;;;;;;;2.87;1.13;;;;;;;12.54;66.36;94728.44;5047781;28;20425;-70
2024/01/18 02:26:11;;;;;;;1.93;1.10;;;;;;;12.54;66.46;94730.28;5047260;28;20242;-70
2024/01/18 02:28:37;;;;;;;1.30;0.80;;;;;;;12.54;66.08;94738.94;5034845;28;20444;-69
2024/01/18 02:31:02;;;;;;;1.90;1.07;;;;;;;12.50;66.46;94736.97;5041387;28;20288;-71
2024/01/18 02:33:28;;;;;;;2.50;0.90;;;;;;;12.53;66.48;94733.91;5055576;28;20187;-69
2024/01/18 02:35:54;;;;;;;1.00;0.90;;;;;;;12.55;66.21;94729.25;5047104;28;20183;-72
2024/01/18 02:38:19;;;;;;;2.53;0.73;;;;;;;12.54;66.12;94730.28;5044213;28;20266;-70
2024/01/18 02:40:45;;;;;;;2.03;1.20;;;;;;;12.53;66.53;94734.75;5056873;28;20253;-72
2024/01/18 02:43:10;;;;;;;1.70;1.00;;;;;;;12.57;66.03;94733.25;5053992;28;20210;-70
2024/01/18 02:45:36;;;;;;;1.10;0.90;;;;;;;12.59;66.18;94735.66;5041814;28;20201;-70
2024/01/18 02:48:02;;;;;;;2.53;0.80;;;;;;;12.62;66.10;94737.03;5048678;28;20183;-70
2024/01/18 02:50:28;;;;;;;2.53;0.90;;;;;;;12.53;66.73;94740.00;5046059;28;20619;-69
2024/01/18 02:52:53;;;;;;;0.80;0.60;;;;;;;12.53;66.75;94747.06;5049013;28;20421;-72
2024/01/18 02:55:19;;;;;;;2.50;0.80;;;;;;;12.54;66.66;94738.94;5051286;28;20208;-69
2024/01/18 02:57:44;;;;;;;1.20;0.80;;;;;;;12.53;66.77;94742.63;5052264;28;20218;-70
2024/01/18 03:00:11;;;;;;;10.03;1.17;;;;;;;12.56;66.94;94741.34;5049050;28;20190;-70
2024/01/18 03:02:37;;;;;;;1.60;0.90;;;;;;;12.58;67.10;94740.09;5048199;28;20182;-70
2024/01/18 03:05:02;;;;;;;2.80;1.20;;;;;;;12.61;66.64;94744.09;5045604;28;21156;-70
2024/01/18 03:07:28;;;;;;;1.10;0.80;;;;;;;12.56;66.88;94747.41;5056041;28;20211;-69
2024/01/18 03:09:54;;;;;;;1.93;0.90;;;;;;;12.58;67.12;94740.09;5046339;28;20288;-70
2024/01/18 03:12:20;;;;;;;1.50;1.10;;;;;;;12.54;67.24;94728.44;5049071;28;20484;-69
2024/01/18 03:14:45;;;;;;;3.70;1.20;;;;;;;12.56;67.11;94729.00;5056246;28;20735;-70
2024/01/18 03:17:10;;;;;;;3.63;1.00;;;;;;;12.52;67.43;94729.69;5045934;28;20285;-70
2024/01/18 03:19:36;;;;;;;1.10;0.83;;;;;;;12.46;67.57;94733.22;5042443;28;20273;-69
2024/01/18 03:22:01;;;;;;;2.40;1.00;;;;;;;12.44;67.71;94734.25;5047490;28;20206;-67
2024/01/18 03:24:27;;;;;;;2.17;0.70;;;;;;;12.48;67.95;94739.84;5047406;28;20179;-69
2024/01/18 03:26:52;;;;;;;2.37;0.90;;;;;;;12.44;67.88;94730.81;5051324;28;20341;-69
2024/01/18 03:29:18;;;;;;;1.93;1.00;;;;;;;12.41;67.63;94732.06;5049744;28;20219;-68
2024/01/18 03:31:43;;;;;;;3.70;1.10;;;;;;;12.48;67.96;94728.53;5051465;28;20205;-69
2024/01/18 03:34:08;;;;;;;1.30;1.20;;;;;;;12.52;67.91;94729.69;5042016;28;20274;-69
2024/01/18 03:36:34;;;;;;;1.10;0.90;;;;;;;12.54;67.61;94725.00;5052066;28;20187;-69
2024/01/18 03:38:59;;;;;;;2.10;0.93;;;;;;;12.54;67.30;94723.19;5060321;28;20214;-70
2024/01/18 03:41:25;;;;;;;1.37;0.93;;;;;;;12.53;67.21;94720.78;5057172;28;20202;-68
2024/01/18 03:43:50;;;;;;;2.20;0.80;;;;;;;12.53;67.45;94736.53;5057384;28;20279;-70
2024/01/18 03:46:16;;;;;;;1.20;0.90;;;;;;;12.51;67.68;94733.34;5051922;28;20290;-70
2024/01/18 03:48:41;;;;;;;1.00;0.90;;;;;;;12.55;67.60;94737.13;5054296;28;20189;-70
2024/01/18 03:51:07;;;;;;;3.17;1.00;;;;;;;12.49;67.54;94751.13;5048641;28;20202;-67
2024/01/18 03:53:34;;;;;;;1.77;0.87;;;;;;;12.41;67.44;94731.28;5053135;28;20616;-69
2024/01/18 03:56:00;;;;;;;5.67;1.10;;;;;;;12.42;67.46;94738.91;5055380;28;20620;-70
2024/01/18 03:58:25;;;;;;;2.27;0.90;;;;;;;12.48;67.45;94728.53;5051074;28;20508;-69
2024/01/18 04:00:51;;;;;;;2.37;0.90;;;;;;;12.50;67.21;94735.19;5045129;28;20789;-70
2024/01/18 04:03:16;;;;;;;1.87;1.10;;;;;;;12.49;67.13;94730.13;5036337;28;20179;-68
2024/01/18 04:05:42;;;;;;;1.43;1.10;;;;;;;12.51;66.54;94731.53;5052101;28;20554;-69
2024/01/18 04:08:07;;;;;;;1.80;1.03;;;;;;;12.45;66.92;94727.16;5054840;28;20313;-70
2024/01/18 04:10:33;;;;;;;3.70;1.00;;;;;;;12.44;67.00;94734.25;5042947;28;20234;-71
2024/01/18 04:12:58;;;;;;;5.50;0.80;;;;;;;12.40;67.17;94725.22;5048823;28;20171;-69
2024/01/18 04:15:23;;;;;;;1.80;1.00;;;;;;;12.42;67.11;94731.03;5058138;28;20213;-70
2024/01/18 04:17:49;;;;;;;3.80;1.87;;;;;;;12.44;67.05;94734.25;5058780;28;20592;-70
2024/01/18 04:20:15;;;;;;;2.10;1.60;;;;;;;12.44;66.61;94734.25;5054727;28;20187;-69
2024/01/18 04:22:41;;;;;;;4.07;1.93;;;;;;;12.46;66.85;94734.00;5045074;28;20283;-69
2024/01/18 04:25:06;;;;;;;1.80;1.20;;;;;;;12.46;66.80;94731.38;5046181;28;20521;-69
2024/01/18 04:27:32;;;;;;;3.83;1.80;;;;;;;12.46;66.56;94725.34;5044175;28;20233;-70
2024/01/18 04:29:57;;;;;;;3.50;1.50;;;;;;;12.41;66.90;94724.19;5045419;28;20182;-69
2024/01/18 04:32:22;;;;;;;1.50;1.10;;;;;;;12.40;66.63;94722.59;5057248;28;20210;-69
2024/01/18 04:34:48;;;;;;;1.83;1.13;;;;;;;12.34;66.93;94720.88;5049645;28;20178;-70
2024/01/18 04:37:13;;;;;;;4.30;1.23;;;;;;;12.36;66.73;94720.63;5050340;28;20250;-68
2024/01/18 04:39:39;;;;;;;3.10;1.37;;;;;;;12.43;66.75;94730.03;5030985;28;20179;-67
2024/01/18 04:42:08;;;;;;;1.73;1.43;;;;;;;12.39;66.32;94720.97;5053434;28;20249;-69
2024/01/18 04:44:33;;;;;;;2.07;1.37;;;;;;;12.33;66.26;94721.88;5044617;28;20237;-70
2024/01/18 04:46:59;;;;;;;1.30;1.20;;;;;;;12.26;66.23;94721.16;5039869;28;20458;-69
2024/01/18 04:49:25;;;;;;;3.20;1.50;;;;;;;12.17;65.90;94723.28;5053196;28;20623;-68
2024/01/18 04:51:50;;;;;;;1.30;1.20;;;;;;;12.12;66.42;94723.19;5050910;28;20278;-72
2024/01/18 04:54:16;;;;;;;2.27;1.53;;;;;;;12.12;66.75;94725.81;5045200;28;20413;-69
2024/01/18 04:56:41;;;;;;;1.53;1.30;;;;;;;12.01;66.29;94729.19;5054840;28;20179;-70
2024/01/18 04:59:08;;;;;;;2.13;1.97;;;;;;;11.83;66.27;94736.03;5055351;28;20183;-69
2024/01/18 05:01:38;;;;;;;1.80;1.70;;;;;;;11.75;65.72;94741.56;5034021;28;20207;-70
2024/01/18 05:04:04;;;;;;;3.60;2.63;;;;;;;11.67;65.19;94734.81;5038453;28;20422;-69
2024/01/18 05:06:29;;;;;;;4.33;3.53;;;;;;;11.48;65.88;94728.75;5050541;28;20514;-68
2024/01/18 05:08:55;;;;;;;4.33;3.93;;;;;;;11.50;65.68;94724.88;5045271;28;20425;-70
2024/01/18 05:11:21;;;;;;;4.73;4.27;;;;;;;11.49;65.50;94722.50;5048865;28;20282;-69
2024/01/18 05:13:46;;;;;;;5.43;4.93;;;;;;;11.42;65.90;94721.75;5058738;28;20182;-70
2024/01/18 05:16:12;;;;;;;5.70;5.20;;;;;;;11.34;65.30;94728.09;5051992;28;20451;-70
2024/01/18 05:18:37;;;;;;;6.77;6.07;;;;;;;11.27;65.36;94722.94;5047743;28;20190;-70
2024/01/18 05:21:03;;;;;;;5.80;5.20;;;;;;;11.20;65.30;94730.03;5041054;28;20286;-69
2024/01/18 05:23:28;;;;;;;7.07;5.77;;;;;;;11.20;65.18;94724.78;5047833;28;20179;-68
2024/01/18 05:25:54;;;;;;;5.93;5.37;;;;;;;11.12;65.58;94719.84;5051652;28;20647;-70
2024/01/18 05:28:19;;;;;;;7.70;6.10;;;;;;;11.03;65.62;94721.94;5052979;28;20628;-69
2024/01/18 05:30:45;;;;;;;7.03;6.33;;;;;;;11.02;65.55;94722.94;5055058;28;20190;-69
2024/01/18 05:33:10;;;;;;;11.33;9.40;;;;;;;10.98;65.39;94725.19;5047900;28;20308;-69
2024/01/18 05:35:36;;;;;;;47.77;30.33;;;;;;;10.82;66.20;94728.34;5047795;28;20184;-70
2024/01/18 05:38:01;;;;;;;40.47;26.47;;;;;;;10.95;65.54;94730.88;5050406;28;20182;-70
2024/01/18 05:40:26;;;;;;;39.57;28.07;;;;;;;11.00;65.21;94732.84;5054385;28;20208;-68
2024/01/18 05:42:52;;;;;;;57.50;35.97;;;;;;;10.91;65.08;94738.34;5056658;28;20183;-67
2024/01/18 05:45:17;;;;;;;87.90;49.03;;;;;;;10.80;65.07;94739.06;5048376;28;20176;-69
2024/01/18 05:47:43;;;;;;;57.53;38.33;;;;;;;10.76;65.49;94737.88;5052760;28;20234;-70
2024/01/18 05:50:09;;;;;;;26.47;18.43;;;;;;;10.74;65.17;94738.09;5051663;28;20217;-69
2024/01/18 05:52:34;;;;;;;35.03;24.60;;;;;;;10.84;65.16;94742.84;5050501;28;20179;-70
2024/01/18 05:55:00;;;;;;;43.87;28.90;;;;;;;10.91;64.76;94748.84;5051791;28;20440;-69
2024/01/18 05:57:25;;;;;;;33.13;20.77;;;;;;;10.94;64.53;94747.59;5041177;28;20219;-69
2024/01/18 05:59:51;;;;;;;19.00;14.30;;;;;;;10.98;64.47;94746.16;5044510;28;20188;-69
2024/01/18 06:02:16;;;;;;;16.50;13.57;;;;;;;11.00;64.27;94752.00;5030880;28;20283;-71
2024/01/18 06:04:42;;;;;;;17.17;9.50;;;;;;;10.90;64.21;94747.22;5040930;28;20179;-69
2024/01/18 06:07:07;;;;;;;8.30;6.97;;;;;;;10.90;64.00;94752.47;5052146;28;20695;-70
2024/01/18 06:09:32;;;;;;;8.80;7.50;;;;;;;10.90;64.09;94759.53;5040094;28;20182;-69
2024/01/18 06:11:58;;;;;;;8.43;7.53;;;;;;;10.72;64.13;94755.03;5052671;28;20207;-68
2024/01/18 06:14:23;;;;;;;7.20;6.50;;;;;;;10.73;63.80;94757.44;5042015;28;20227;-69
2024/01/18 06:16:49;;;;;;;7.53;6.83;;;;;;;10.69;64.10;94756.25;5035197;28;20274;-70
2024/01/18 06:19:14;;;;;;;7.40;6.70;;;;;;;10.66;64.23;94763.75;5035406;28;20199;-71
2024/01/18 06:21:41;;;;;;;7.00;6.40;;;;;;;10.62;63.62;94773.03;5037130;28;20268;-69
2024/01/18 06:24:07;;;;;;;7.03;6.33;;;;;;;10.56;63.67;94778.13;5033008;28;20295;-69
2024/01/18 06:26:33;;;;;;;7.60;6.67;;;;;;;10.51;63.77;94764.06;5037827;28;20842;-69
2024/01/18 06:28:58;;;;;;;6.00;5.50;;;;;;;10.51;64.04;94767.47;5029375;28;20456;-70
2024/01/18 06:31:26;;;;;;;5.10;4.70;;;;;;;10.51;63.53;94764.84;5045116;28;20726;-69
2024/01/18 06:33:56;;;;;;;4.57;4.17;;;;;;;10.42;62.48;94761.66;5035793;28;20191;-71
2024/01/18 06:36:22;;;;;;;3.57;3.23;;;;;;;10.35;62.58;94778.41;5047203;28;20493;-70
2024/01/18 06:38:49;;;;;;;3.43;3.13;;;;;;;10.23;61.97;94778.28;5033953;28;20433;-70
2024/01/18 06:41:15;;;;;;;3.20;3.00;;;;;;;10.18;61.74;94773.66;5053285;28;20446;-69
2024/01/18 06:43:40;;;;;;;3.30;3.00;;;;;;;10.10;61.51;94764.25;5045076;28;20490;-69
2024/01/18 06:46:16;;;;;;;2.80;2.60;;;;;;;9.93;62.09;94774.38;5039372;28;20203;-69
2024/01/18 06:48:42;;;;;;;3.10;2.90;;;;;;;9.97;61.88;94775.56;5046334;28;20181;-70
2024/01/18 06:51:08;;;;;;;2.73;2.50;;;;;;;9.95;61.58;94779.41;5054790;28;21037;-70
2024/01/18 06:53:33;;;;;;;4.13;2.67;;;;;;;9.87;61.54;94782.25;5047325;28;20504;-68
2024/01/18 06:55:59;;;;;;;2.33;2.13;;;;;;;9.83;61.13;94784.47;5044465;28;20724;-70
2024/01/18 06:58:24;;;;;;;2.63;2.30;;;;;;;9.78;60.25;94781.69;5055776;28;20718;-69
2024/01/18 07:00:50;;;;;;;4.80;4.30;;;;;;;9.66;60.88;94771.84;5050033;28;20206;-70
2024/01/18 07:03:16;;;;;;;2.10;2.00;;;;;;;9.56;60.03;94768.88;5037492;28;20661;-69
2024/01/18 07:05:41;;;;;;;2.93;2.07;;;;;;;9.45;60.85;94766.91;5053864;28;20195;-68
2024/01/18 07:08:07;;;;;;;2.37;2.17;;;;;;;9.46;60.69;94771.09;5035390;28;20210;-69
2024/01/18 07:11:14;;;;;;;3.00;2.80;;;;;;;9.43;61.32;94769.69;5042354;28;20220;-69
2024/01/18 07:13:39;;;;;;;2.63;2.30;;;;;;;9.42;61.20;94767.31;5038665;28;20692;-69
2024/01/18 07:16:06;;;;;;;3.50;2.10;;;;;;;9.43;61.17;94771.53;5033393;28;20457;-69
2024/01/18 07:18:32;;;;;;;2.10;2.00;;;;;;;9.47;61.19;94770.91;5033926;28;20184;-69
2024/01/18 07:20:57;;;;;;;2.10;1.90;;;;;;;9.43;60.83;94769.69;5036387;28;20449;-68
2024/01/18 07:23:23;;;;;;;2.03;1.90;;;;;;;9.44;61.08;94765.28;5039640;28;20292;-68
2024/01/18 07:25:48;;;;;;;3.30;1.90;;;;;;;9.35;60.88;94770.72;5032032;28;20188;-69
2024/01/18 07:28:14;;;;;;;2.43;2.20;;;;;;;9.26;61.19;94766.72;5048721;28;20175;-68
2024/01/18 07:30:39;;;;;;;2.50;2.27;;;;;;;9.31;61.38;94761.69;5037368;28;20703;-69
2024/01/18 07:33:05;;;;;;;2.50;2.10;;;;;;;9.31;61.33;94766.91;5039064;28;20311;-68
2024/01/18 07:35:31;;;;;;;1.80;1.70;;;;;;;9.40;60.97;94766.69;5037189;28;20664;-69
2024/01/18 07:37:56;;;;;;;2.80;2.60;;;;;;;9.34;60.61;94765.69;5033748;28;20488;-69
2024/01/18 07:40:22;;;;;;;2.40;2.30;;;;;;;9.31;60.78;94766.91;5050656;28;20287;-70
2024/01/18 07:42:47;;;;;;;2.40;2.20;;;;;;;9.27;60.45;94762.28;5047529;28;20179;-69
2024/01/18 07:45:14;;;;;;;2.40;2.20;;;;;;;9.24;60.93;94758.28;5043839;28;20210;-68
2024/01/18 07:47:41;;;;;;;2.30;2.10;;;;;;;9.24;61.25;94758.28;5034716;28;20214;-69
2024/01/18 07:50:06;;;;;;;2.27;2.07;;;;;;;9.28;61.15;94756.03;5045239;28;20506;-68
2024/01/18 07:52:32;;;;;;;2.10;2.00;;;;;;;9.24;60.87;94755.66;5046981;28;20441;-69
2024/01/18 07:54:57;;;;;;;2.37;2.17;;;;;;;9.12;60.51;94755.50;5051069;28;20305;-69
2024/01/18 07:57:23;;;;;;;2.30;2.10;;;;;;;9.04;61.64;94758.28;5050482;28;20678;-69
2024/01/18 07:59:48;;;;;;;2.87;2.20;;;;;;;8.99;61.81;94758.91;5047514;28;20279;-69
2024/01/18 08:02:14;;;;;;;3.30;2.40;;;;;;;9.07;62.10;94766.53;5050753;28;20207;-69
2024/01/18 08:04:39;;;;;;;3.17;2.23;;;;;;;9.07;61.75;94769.13;5047967;28;20179;-69
2024/01/18 08:07:04;;;;;;;2.37;2.00;;;;;;;9.05;61.36;94768.56;5047460;28;20290;-69
2024/01/18 08:09:30;;;;;;;2.00;1.90;;;;;;;9.08;61.42;94767.34;5044433;28;20210;-70
2024/01/18 08:11:56;;;;;;;2.30;2.10;;;;;;;9.00;61.51;94768.34;5053730;28;20203;-69
2024/01/18 08:14:22;;;;;;;4.07;2.50;;;;;;;8.93;61.21;94770.19;5056680;28;20416;-69
2024/01/18 08:16:47;;;;;;;2.20;2.00;;;;;;;8.95;61.24;94780.41;5045018;28;20185;-69
2024/01/18 08:19:13;;;;;;;2.13;1.93;;;;;;;8.97;61.18;94792.25;5052737;28;20711;-69
2024/01/18 08:21:45;;;;;;;2.43;2.23;;;;;;;8.84;60.46;94798.28;5055991;28;20223;-70
2024/01/18 08:24:11;;;;;;;2.17;1.97;;;;;;;8.83;60.59;94801.09;5045294;28;20185;-70
2024/01/18 08:26:36;;;;;;;1.80;1.70;;;;;;;8.81;60.59;94795.28;5052412;28;20543;-69
2024/01/18 08:29:02;;;;;;;2.33;2.13;;;;;;;8.81;60.16;94803.13;5055795;28;20246;-69
2024/01/18 08:31:28;;;;;;;1.90;1.70;;;;;;;8.75;60.39;94808.13;5049929;28;20695;-69
2024/01/18 08:33:53;;;;;;;1.73;1.40;;;;;;;8.78;59.98;94809.53;5047225;28;20259;-69
2024/01/18 08:36:19;;;;;;;1.83;1.50;;;;;;;8.78;59.88;94813.97;5041020;28;20298;-69
2024/01/18 08:38:45;;;;;;;2.00;1.67;;;;;;;8.76;59.88;94816.75;5040768;28;20525;-67
2024/01/18 08:41:10;;;;;;;1.67;1.57;;;;;;;8.72;60.25;94826.78;5059306;28;20249;-71
2024/01/18 08:43:36;;;;;;;1.90;1.80;;;;;;;8.68;60.53;94830.81;5053042;28;20471;-70
2024/01/18 08:46:06;;;;;;;1.67;1.57;;;;;;;8.66;60.09;94824.16;5044127;28;20183;-68
2024/01/18 08:48:32;;;;;;;2.10;2.00;;;;;;;8.64;59.87;94834.00;5058162;28;20231;-70
2024/01/18 08:50:57;;;;;;;1.90;1.80;;;;;;;8.57;60.28;94841.81;5048503;28;20444;-69
2024/01/18 08:53:23;;;;;;;3.90;1.77;;;;;;;8.47;60.04;94839.56;5045517;28;20181;-69
2024/01/18 08:55:48;;;;;;;1.70;1.60;;;;;;;8.43;59.78;94840.97;5057850;28;20186;-69
2024/01/18 08:58:14;;;;;;;2.03;1.93;;;;;;;8.33;59.77;94858.81;5046091;28;20204;-69
2024/01/18 09:00:39;;;;;;;2.10;1.90;;;;;;;8.36;59.83;94859.22;5049570;28;20238;-70
2024/01/18 09:03:05;;;;;;;2.20;2.00;;;;;;;8.39;59.12;94856.22;5049860;28;20186;-69
2024/01/18 09:05:30;;;;;;;2.10;2.00;;;;;;;8.39;59.88;94863.22;5049604;28;20191;-68
2024/01/18 09:07:57;;;;;;;2.00;1.90;;;;;;;8.36;59.75;94867.03;5048359;28;20197;-68
2024/01/18 09:10:22;;;;;;;2.07;1.97;;;;;;;8.37;59.86;94880.91;5052123;28;20690;-70
2024/01/18 09:12:48;;;;;;;2.40;2.20;;;;;;;8.38;59.03;94885.91;5048230;28;20432;-70
2024/01/18 09:15:14;;;;;;;2.30;1.80;;;;;;;8.29;58.25;94889.72;5051473;28;20664;-69
2024/01/18 09:17:40;;;;;;;1.90;1.80;;;;;;;8.32;58.46;94894.50;5050030;28;20410;-70
2024/01/18 09:20:07;;;;;;;1.97;1.87;;;;;;;8.33;58.15;94892.72;5050424;28;20187;-68
2024/01/18 09:22:32;;;;;;;2.00;1.90;;;;;;;8.28;58.07;94890.69;5042688;28;20439;-69
2024/01/18 09:24:58;;;;;;;6.87;6.17;;;;;;;8.23;58.14;94898.28;5054620;28;20426;-69
2024/01/18 09:27:24;;;;;;;4.43;4.03;;;;;;;8.14;58.59;94901.06;5050813;28;20207;-70
2024/01/18 09:29:49;;;;;;;3.67;3.37;;;;;;;8.10;58.78;94912.88;5036705;28;20461;-69
2024/01/18 09:32:15;;;;;;;3.73;3.47;;;;;;;8.06;58.74;94916.91;5044526;28;20199;-67
2024/01/18 09:34:41;;;;;;;2.20;2.10;;;;;;;8.02;57.16;94926.09;5028097;28;20823;-70
2024/01/18 09:37:06;;;;;;;2.23;1.80;;;;;;;7.89;58.20;94932.03;5047713;28;20458;-68
2024/01/18 09:39:32;;;;;;;1.60;1.50;;;;;;;7.86;57.66;94934.22;5044436;28;20269;-69
2024/01/18 09:41:57;;;;;;;2.40;2.20;;;;;;;7.84;58.32;94932.59;5050644;28;20844;-69
2024/01/18 09:44:31;;;;;;;2.07;1.80;;;;;;;7.87;57.47;94946.25;5049581;28;20183;-68
2024/01/18 09:46:57;;;;;;;1.20;1.10;;;;;;;7.74;56.70;94952.19;5039326;28;20214;-68
2024/01/18 09:49:24;;;;;;;1.80;1.70;;;;;;;7.72;57.07;94956.78;5053008;28;20426;-69
2024/01/18 09:51:50;;;;;;;1.30;1.20;;;;;;;7.64;57.31;94955.13;5044771;28;20842;-69
2024/01/18 09:54:16;;;;;;;1.50;1.40;;;;;;;7.59;57.83;94962.69;5045649;28;20493;-68
2024/01/18 09:56:45;;;;;;;2.27;2.07;;;;;;;7.47;56.83;94965.81;5053287;28;20420;-69
2024/01/18 09:59:18;;;;;;;1.70;1.40;;;;;;;7.41;57.38;94969.19;5058332;28;20463;-70
2024/01/18 10:01:44;;;;;;;1.93;1.70;;;;;;;7.36;57.29;94969.75;5035725;28;21055;-68
2024/01/18 10:04:14;;;;;;;1.73;1.63;;;;;;;7.33;57.23;94987.53;5053220;28;20444;-68
2024/01/18 10:06:40;;;;;;;1.40;1.30;;;;;;;7.29;57.77;94999.34;5040603;28;20453;-70
2024/01/18 10:09:10;;;;;;;1.67;1.10;;;;;;;7.20;58.38;95017.66;5046377;28;20468;-70
2024/01/18 10:11:36;;;;;;;1.10;1.00;;;;;;;7.19;57.67;95031.69;5050267;28;20445;-67
2024/01/18 10:14:02;;;;;;;1.53;1.10;;;;;;;7.19;57.99;95036.09;5052079;28;20421;-70
2024/01/18 10:16:29;;;;;;;2.10;1.90;;;;;;;7.12;58.25;95045.66;5048313;28;20522;-66
2024/01/18 10:18:56;;;;;;;1.30;1.20;;;;;;;7.07;57.75;95038.38;5042145;28;20235;-70
2024/01/18 10:21:23;;;;;;;2.27;1.40;;;;;;;7.00;58.27;95058.31;5051179;28;20480;-70
2024/01/18 10:23:49;;;;;;;1.30;1.07;;;;;;;6.91;58.32;95057.63;5056575;28;20418;-69
2024/01/18 10:26:16;;;;;;;1.10;1.00;;;;;;;6.74;58.49;95057.81;5032581;28;20672;-69
2024/01/18 10:28:41;;;;;;;1.53;0.93;;;;;;;6.76;58.27;95068.06;5039284;28;20450;-70
2024/01/18 10:31:07;;;;;;;1.90;1.37;;;;;;;6.78;58.79;95066.09;5038161;28;20526;-69
2024/01/18 10:33:33;;;;;;;0.93;0.83;;;;;;;6.79;58.35;95067.69;5035932;28;20187;-68
2024/01/18 10:35:59;;;;;;;3.93;1.73;;;;;;;6.75;58.77;95076.84;5033372;28;20443;-69
2024/01/18 10:38:32;;;;;;;1.60;1.50;;;;;;;6.70;58.44;95084.38;5029836;28;20195;-69
2024/01/18 10:40:59;;;;;;;1.10;1.00;;;;;;;6.60;58.37;95080.25;5047483;28;20445;-68
2024/01/18 10:43:29;;;;;;;1.60;0.97;;;;;;;6.56;58.52;95084.19;5038342;28;20434;-68
2024/01/18 10:45:55;;;;;;;1.33;1.20;;;;;;;6.63;58.53;95092.09;5039299;28;20410;-71
2024/01/18 10:48:21;;;;;;;1.60;1.50;;;;;;;6.63;58.61;95092.09;5041736;28;20429;-70
2024/01/18 10:50:47;;;;;;;1.20;1.10;;;;;;;6.65;58.65;95104.94;5030614;28;21123;-67
2024/01/18 10:53:14;;;;;;;1.20;1.10;;;;;;;6.66;59.00;95109.97;5044268;28;20248;-68
2024/01/18 10:55:40;;;;;;;1.40;1.30;;;;;;;6.69;58.67;95116.59;5040433;28;20427;-68
2024/01/18 10:58:08;;;;;;;1.40;1.30;;;;;;;6.66;58.59;95115.19;5045550;28;20452;-68
2024/01/18 11:00:33;;;;;;;1.53;1.43;;;;;;;6.64;58.44;95126.75;5033912;28;20244;-68
2024/01/18 11:02:59;;;;;;;2.13;2.03;;;;;;;6.55;58.51;95133.84;5053126;28;20422;-68
2024/01/18 11:05:25;;;;;;;2.93;2.73;;;;;;;6.44;58.92;95122.88;5048378;28;20321;-69
2024/01/18 11:07:51;;;;;;;2.30;2.10;;;;;;;6.50;58.73;95130.94;5048988;28;20231;-68
2024/01/18 11:10:16;;;;;;;1.77;1.67;;;;;;;6.43;59.23;95136.03;5049803;28;20437;-67
2024/01/18 11:12:43;;;;;;;1.30;1.20;;;;;;;6.45;59.53;95150.53;5054679;28;20445;-69
2024/01/18 11:15:13;;;;;;;1.60;1.50;;;;;;;6.52;59.31;95150.63;5048461;28;20184;-68
2024/01/18 11:17:51;;;;;;;2.10;2.00;;;;;;;6.45;59.53;95166.13;5046500;28;20508;-68
2024/01/18 11:20:17;;;;;;;1.80;1.70;;;;;;;6.51;59.06;95163.78;5048216;28;20504;-67
2024/01/18 11:22:43;;;;;;;1.57;1.40;;;;;;;6.52;59.56;95170.63;5056411;28;20441;-70
2024/01/18 11:25:10;;;;;;;1.40;1.30;;;;;;;6.54;59.27;95176.47;5050399;28;20422;-71
2024/01/18 11:27:37;;;;;;;1.10;1.00;;;;;;;6.51;59.16;95179.41;5051717;28;20624;-70
2024/01/18 11:30:05;;;;;;;1.47;1.37;;;;;;;6.44;59.04;95185.31;5040053;28;20841;-69